sensor_id;sensor_type;location;lat;lon;timestamp;P1;durP1;ratioP1;P2;durP2;ratioP2
80744;SDS011;70143;52.396;16.950;2023-05-24T00:02:19;12.45;;;8.38;;
80744;SDS011;70143;52.396;16.950;2023-05-24T00:04:45;13.77;;;8.57;;
80744;SDS011;70143;52.396;16.950;2023-05-24T00:07:10;13.45;;;8.82;;
80744;SDS011;70143;52.396;16.950;2023-05-24T00:09:36;11.27;;;8.00;;
80744;SDS011;70143;52.396;16.950;2023-05-24T00:12:01;15.02;;;9.07;;
80744;SDS011;70143;52.396;16.950;2023-05-24T00:14:27;12.40;;;8.10;;
80744;SDS011;70143;52.396;16.950;2023-05-24T00:16:52;11.43;;;7.75;;
80744;SDS011;70143;52.396;16.950;2023-05-24T00:19:18;13.02;;;8.93;;
80744;SDS011;70143;52.396;16.950;2023-05-24T00:21:44;13.05;;;9.15;;
80744;SDS011;70143;52.396;16.950;2023-05-24T00:24:10;12.77;;;7.82;;
80744;SDS011;70143;52.396;16.950;2023-05-24T00:26:35;13.90;;;7.25;;
80744;SDS011;70143;52.396;16.950;2023-05-24T00:29:01;11.95;;;6.55;;
80744;SDS011;70143;52.396;16.950;2023-05-24T00:31:26;11.50;;;6.55;;
80744;SDS011;70143;52.396;16.950;2023-05-24T00:33:51;12.20;;;7.40;;
80744;SDS011;70143;52.396;16.950;2023-05-24T00:36:17;10.50;;;6.60;;
80744;SDS011;70143;52.396;16.950;2023-05-24T00:38:42;14.15;;;5.93;;
80744;SDS011;70143;52.396;16.950;2023-05-24T00:41:07;10.52;;;6.22;;
80744;SDS011;70143;52.396;16.950;2023-05-24T00:43:33;12.63;;;6.28;;
80744;SDS011;70143;52.396;16.950;2023-05-24T00:46:15;9.65;;;5.93;;
80744;SDS011;70143;52.396;16.950;2023-05-24T00:48:41;10.75;;;7.07;;
80744;SDS011;70143;52.396;16.950;2023-05-24T00:51:07;10.73;;;6.68;;
80744;SDS011;70143;52.396;16.950;2023-05-24T00:53:33;10.73;;;5.88;;
80744;SDS011;70143;52.396;16.950;2023-05-24T00:56:00;9.80;;;7.00;;
80744;SDS011;70143;52.396;16.950;2023-05-24T00:58:29;12.93;;;6.80;;
80744;SDS011;70143;52.396;16.950;2023-05-24T01:00:59;11.25;;;7.20;;
80744;SDS011;70143;52.396;16.950;2023-05-24T01:03:26;14.68;;;6.75;;
80744;SDS011;70143;52.396;16.950;2023-05-24T01:05:52;12.10;;;7.65;;
80744;SDS011;70143;52.396;16.950;2023-05-24T01:08:21;10.48;;;7.30;;
80744;SDS011;70143;52.396;16.950;2023-05-24T01:19:51;14.15;;;7.13;;
80744;SDS011;70143;52.396;16.950;2023-05-24T01:22:23;14.07;;;8.85;;
80744;SDS011;70143;52.396;16.950;2023-05-24T01:25:03;13.07;;;7.60;;
80744;SDS011;70143;52.396;16.950;2023-05-24T01:27:36;11.13;;;7.65;;
80744;SDS011;70143;52.396;16.950;2023-05-24T01:30:02;11.57;;;7.30;;
80744;SDS011;70143;52.396;16.950;2023-05-24T01:32:29;10.88;;;7.10;;
80744;SDS011;70143;52.396;16.950;2023-05-24T01:34:54;12.13;;;7.30;;
80744;SDS011;70143;52.396;16.950;2023-05-24T01:37:20;9.82;;;6.82;;
80744;SDS011;70143;52.396;16.950;2023-05-24T01:39:46;10.38;;;6.88;;
80744;SDS011;70143;52.396;16.950;2023-05-24T01:51:09;11.68;;;7.72;;
80744;SDS011;70143;52.396;16.950;2023-05-24T01:53:26;12.43;;;6.45;;
80744;SDS011;70143;52.396;16.950;2023-05-24T01:56:00;10.77;;;6.93;;
80744;SDS011;70143;52.396;16.950;2023-05-24T01:58:27;10.30;;;6.75;;
80744;SDS011;70143;52.396;16.950;2023-05-24T02:00:55;11.25;;;6.18;;
80744;SDS011;70143;52.396;16.950;2023-05-24T02:03:21;9.20;;;5.85;;
80744;SDS011;70143;52.396;16.950;2023-05-24T02:05:47;10.00;;;6.05;;
80744;SDS011;70143;52.396;16.950;2023-05-24T02:08:12;10.05;;;5.97;;
80744;SDS011;70143;52.396;16.950;2023-05-24T02:10:38;9.70;;;5.85;;
80744;SDS011;70143;52.396;16.950;2023-05-24T02:13:04;10.73;;;6.25;;
80744;SDS011;70143;52.396;16.950;2023-05-24T02:15:31;8.55;;;5.13;;
80744;SDS011;70143;52.396;16.950;2023-05-24T02:17:57;9.30;;;5.40;;
80744;SDS011;70143;52.396;16.950;2023-05-24T02:20:22;9.98;;;5.63;;
80744;SDS011;70143;52.396;16.950;2023-05-24T02:22:48;9.85;;;5.43;;
80744;SDS011;70143;52.396;16.950;2023-05-24T02:25:14;11.15;;;5.65;;
80744;SDS011;70143;52.396;16.950;2023-05-24T02:27:40;8.90;;;5.78;;
80744;SDS011;70143;52.396;16.950;2023-05-24T02:30:05;7.63;;;4.70;;
80744;SDS011;70143;52.396;16.950;2023-05-24T02:32:31;8.65;;;5.50;;
80744;SDS011;70143;52.396;16.950;2023-05-24T02:34:57;9.95;;;5.90;;
80744;SDS011;70143;52.396;16.950;2023-05-24T02:37:22;9.38;;;5.88;;
80744;SDS011;70143;52.396;16.950;2023-05-24T02:39:48;7.63;;;5.35;;
80744;SDS011;70143;52.396;16.950;2023-05-24T02:42:13;11.43;;;6.53;;
80744;SDS011;70143;52.396;16.950;2023-05-24T02:44:39;9.25;;;6.45;;
80744;SDS011;70143;52.396;16.950;2023-05-24T02:47:04;8.10;;;5.30;;
80744;SDS011;70143;52.396;16.950;2023-05-24T02:49:30;7.75;;;5.45;;
80744;SDS011;70143;52.396;16.950;2023-05-24T02:51:55;7.45;;;5.15;;
80744;SDS011;70143;52.396;16.950;2023-05-24T02:54:21;8.20;;;5.22;;
80744;SDS011;70143;52.396;16.950;2023-05-24T02:56:46;7.07;;;4.63;;
80744;SDS011;70143;52.396;16.950;2023-05-24T02:59:12;7.45;;;5.03;;
80744;SDS011;70143;52.396;16.950;2023-05-24T03:01:37;6.68;;;4.55;;
80744;SDS011;70143;52.396;16.950;2023-05-24T03:04:03;6.85;;;4.28;;
80744;SDS011;70143;52.396;16.950;2023-05-24T03:06:28;7.53;;;4.13;;
80744;SDS011;70143;52.396;16.950;2023-05-24T03:08:54;5.80;;;3.67;;
80744;SDS011;70143;52.396;16.950;2023-05-24T03:11:19;6.85;;;3.47;;
80744;SDS011;70143;52.396;16.950;2023-05-24T03:13:44;5.30;;;3.17;;
80744;SDS011;70143;52.396;16.950;2023-05-24T03:16:10;6.18;;;3.33;;
80744;SDS011;70143;52.396;16.950;2023-05-24T03:18:35;6.38;;;3.13;;
80744;SDS011;70143;52.396;16.950;2023-05-24T03:21:01;4.60;;;2.60;;
80744;SDS011;70143;52.396;16.950;2023-05-24T03:23:26;4.57;;;2.67;;
80744;SDS011;70143;52.396;16.950;2023-05-24T03:25:51;5.40;;;3.03;;
80744;SDS011;70143;52.396;16.950;2023-05-24T03:28:17;4.78;;;2.63;;
80744;SDS011;70143;52.396;16.950;2023-05-24T03:30:42;9.20;;;4.03;;
80744;SDS011;70143;52.396;16.950;2023-05-24T03:33:08;6.60;;;3.20;;
80744;SDS011;70143;52.396;16.950;2023-05-24T03:35:33;11.85;;;3.60;;
80744;SDS011;70143;52.396;16.950;2023-05-24T03:37:59;9.98;;;4.55;;
80744;SDS011;70143;52.396;16.950;2023-05-24T03:40:24;9.52;;;3.70;;
80744;SDS011;70143;52.396;16.950;2023-05-24T03:42:49;7.55;;;3.92;;
80744;SDS011;70143;52.396;16.950;2023-05-24T03:45:15;9.80;;;3.80;;
80744;SDS011;70143;52.396;16.950;2023-05-24T03:47:40;14.90;;;5.07;;
80744;SDS011;70143;52.396;16.950;2023-05-24T03:50:06;9.77;;;5.15;;
80744;SDS011;70143;52.396;16.950;2023-05-24T03:52:31;13.45;;;5.40;;
80744;SDS011;70143;52.396;16.950;2023-05-24T03:54:57;9.40;;;5.03;;
80744;SDS011;70143;52.396;16.950;2023-05-24T03:57:22;10.50;;;5.30;;
80744;SDS011;70143;52.396;16.950;2023-05-24T03:59:48;14.88;;;5.90;;
80744;SDS011;70143;52.396;16.950;2023-05-24T04:02:13;14.70;;;5.90;;
80744;SDS011;70143;52.396;16.950;2023-05-24T04:04:39;13.13;;;5.68;;
80744;SDS011;70143;52.396;16.950;2023-05-24T04:07:04;17.30;;;5.97;;
80744;SDS011;70143;52.396;16.950;2023-05-24T04:09:29;13.07;;;5.43;;
80744;SDS011;70143;52.396;16.950;2023-05-24T04:11:55;11.85;;;5.68;;
80744;SDS011;70143;52.396;16.950;2023-05-24T04:14:20;11.85;;;5.43;;
80744;SDS011;70143;52.396;16.950;2023-05-24T04:16:46;12.60;;;5.80;;
80744;SDS011;70143;52.396;16.950;2023-05-24T04:19:11;15.27;;;5.60;;
80744;SDS011;70143;52.396;16.950;2023-05-24T04:21:37;12.25;;;6.03;;
80744;SDS011;70143;52.396;16.950;2023-05-24T04:24:03;12.38;;;6.07;;
80744;SDS011;70143;52.396;16.950;2023-05-24T04:26:29;12.88;;;6.15;;
80744;SDS011;70143;52.396;16.950;2023-05-24T04:28:55;13.07;;;5.72;;
80744;SDS011;70143;52.396;16.950;2023-05-24T04:31:21;13.40;;;5.28;;
80744;SDS011;70143;52.396;16.950;2023-05-24T04:33:47;9.57;;;5.30;;
80744;SDS011;70143;52.396;16.950;2023-05-24T04:36:12;6.75;;;4.32;;
80744;SDS011;70143;52.396;16.950;2023-05-24T04:38:38;8.65;;;4.68;;
80744;SDS011;70143;52.396;16.950;2023-05-24T04:41:04;12.25;;;4.97;;
80744;SDS011;70143;52.396;16.950;2023-05-24T04:43:29;10.77;;;4.63;;
80744;SDS011;70143;52.396;16.950;2023-05-24T04:45:56;9.88;;;4.72;;
80744;SDS011;70143;52.396;16.950;2023-05-24T04:48:21;10.25;;;4.05;;
80744;SDS011;70143;52.396;16.950;2023-05-24T04:50:49;7.93;;;3.90;;
80744;SDS011;70143;52.396;16.950;2023-05-24T04:53:16;11.38;;;4.30;;
80744;SDS011;70143;52.396;16.950;2023-05-24T04:55:44;9.48;;;4.38;;
80744;SDS011;70143;52.396;16.950;2023-05-24T04:58:10;7.68;;;3.95;;
80744;SDS011;70143;52.396;16.950;2023-05-24T05:00:35;8.20;;;4.57;;
80744;SDS011;70143;52.396;16.950;2023-05-24T05:03:01;6.68;;;3.42;;
80744;SDS011;70143;52.396;16.950;2023-05-24T05:05:26;10.10;;;3.85;;
80744;SDS011;70143;52.396;16.950;2023-05-24T05:07:52;10.48;;;3.28;;
80744;SDS011;70143;52.396;16.950;2023-05-24T05:10:17;7.70;;;3.40;;
80744;SDS011;70143;52.396;16.950;2023-05-24T05:12:45;6.82;;;3.05;;
80744;SDS011;70143;52.396;16.950;2023-05-24T05:15:10;8.13;;;3.35;;
80744;SDS011;70143;52.396;16.950;2023-05-24T05:17:36;8.80;;;3.25;;
80744;SDS011;70143;52.396;16.950;2023-05-24T05:20:02;9.00;;;3.35;;
80744;SDS011;70143;52.396;16.950;2023-05-24T05:22:28;6.35;;;3.03;;
80744;SDS011;70143;52.396;16.950;2023-05-24T05:24:53;6.57;;;3.22;;
80744;SDS011;70143;52.396;16.950;2023-05-24T05:29:45;8.53;;;2.83;;
80744;SDS011;70143;52.396;16.950;2023-05-24T05:32:11;6.25;;;2.70;;
80744;SDS011;70143;52.396;16.950;2023-05-24T05:34:36;5.35;;;2.67;;
80744;SDS011;70143;52.396;16.950;2023-05-24T05:37:02;7.43;;;2.72;;
80744;SDS011;70143;52.396;16.950;2023-05-24T05:39:27;5.78;;;2.28;;
80744;SDS011;70143;52.396;16.950;2023-05-24T05:41:53;5.25;;;2.17;;
80744;SDS011;70143;52.396;16.950;2023-05-24T05:44:18;5.75;;;2.30;;
80744;SDS011;70143;52.396;16.950;2023-05-24T05:46:44;3.22;;;1.90;;
80744;SDS011;70143;52.396;16.950;2023-05-24T05:49:09;4.43;;;1.88;;
80744;SDS011;70143;52.396;16.950;2023-05-24T05:51:35;3.28;;;1.52;;
80744;SDS011;70143;52.396;16.950;2023-05-24T05:54:00;3.65;;;1.65;;
80744;SDS011;70143;52.396;16.950;2023-05-24T05:56:25;6.20;;;1.58;;
80744;SDS011;70143;52.396;16.950;2023-05-24T05:58:51;6.18;;;1.33;;
80744;SDS011;70143;52.396;16.950;2023-05-24T06:01:16;3.67;;;1.30;;
80744;SDS011;70143;52.396;16.950;2023-05-24T06:03:42;5.38;;;1.23;;
80744;SDS011;70143;52.396;16.950;2023-05-24T06:06:07;3.50;;;1.20;;
80744;SDS011;70143;52.396;16.950;2023-05-24T06:08:33;3.92;;;1.33;;
80744;SDS011;70143;52.396;16.950;2023-05-24T06:10:58;4.22;;;1.58;;
80744;SDS011;70143;52.396;16.950;2023-05-24T06:13:23;3.60;;;1.50;;
80744;SDS011;70143;52.396;16.950;2023-05-24T06:15:49;3.28;;;1.40;;
80744;SDS011;70143;52.396;16.950;2023-05-24T06:18:14;2.55;;;1.25;;
80744;SDS011;70143;52.396;16.950;2023-05-24T06:20:40;5.53;;;1.30;;
80744;SDS011;70143;52.396;16.950;2023-05-24T06:23:05;2.88;;;1.00;;
80744;SDS011;70143;52.396;16.950;2023-05-24T06:25:31;2.20;;;1.10;;
80744;SDS011;70143;52.396;16.950;2023-05-24T06:27:56;2.35;;;0.90;;
80744;SDS011;70143;52.396;16.950;2023-05-24T06:30:22;4.55;;;1.00;;
80744;SDS011;70143;52.396;16.950;2023-05-24T06:32:47;5.18;;;1.38;;
80744;SDS011;70143;52.396;16.950;2023-05-24T06:35:12;3.20;;;1.20;;
80744;SDS011;70143;52.396;16.950;2023-05-24T06:37:38;2.30;;;1.00;;
80744;SDS011;70143;52.396;16.950;2023-05-24T06:40:05;2.83;;;0.98;;
80744;SDS011;70143;52.396;16.950;2023-05-24T06:42:31;3.15;;;1.02;;
80744;SDS011;70143;52.396;16.950;2023-05-24T06:44:56;1.98;;;0.90;;
80744;SDS011;70143;52.396;16.950;2023-05-24T06:47:22;2.60;;;1.38;;
80744;SDS011;70143;52.396;16.950;2023-05-24T06:49:47;2.97;;;1.30;;
80744;SDS011;70143;52.396;16.950;2023-05-24T06:52:13;3.35;;;1.70;;
80744;SDS011;70143;52.396;16.950;2023-05-24T06:54:38;3.72;;;1.30;;
80744;SDS011;70143;52.396;16.950;2023-05-24T06:57:03;2.17;;;1.15;;
80744;SDS011;70143;52.396;16.950;2023-05-24T06:59:29;2.97;;;1.20;;
80744;SDS011;70143;52.396;16.950;2023-05-24T07:01:54;3.33;;;1.35;;
80744;SDS011;70143;52.396;16.950;2023-05-24T07:04:20;2.95;;;1.48;;
80744;SDS011;70143;52.396;16.950;2023-05-24T07:06:45;2.88;;;1.20;;
80744;SDS011;70143;52.396;16.950;2023-05-24T07:09:11;2.28;;;1.30;;
80744;SDS011;70143;52.396;16.950;2023-05-24T07:11:36;2.70;;;1.48;;
80744;SDS011;70143;52.396;16.950;2023-05-24T07:14:02;7.80;;;1.50;;
80744;SDS011;70143;52.396;16.950;2023-05-24T07:16:27;3.05;;;1.50;;
80744;SDS011;70143;52.396;16.950;2023-05-24T07:18:53;3.13;;;1.30;;
80744;SDS011;70143;52.396;16.950;2023-05-24T07:21:19;3.00;;;1.60;;
80744;SDS011;70143;52.396;16.950;2023-05-24T07:23:44;3.22;;;1.40;;
80744;SDS011;70143;52.396;16.950;2023-05-24T07:26:10;4.00;;;1.98;;
80744;SDS011;70143;52.396;16.950;2023-05-24T07:28:35;3.38;;;1.80;;
80744;SDS011;70143;52.396;16.950;2023-05-24T07:31:01;3.00;;;1.95;;
80744;SDS011;70143;52.396;16.950;2023-05-24T07:33:28;4.40;;;1.90;;
80744;SDS011;70143;52.396;16.950;2023-05-24T07:35:53;4.40;;;2.20;;
80744;SDS011;70143;52.396;16.950;2023-05-24T07:38:19;4.05;;;2.05;;
80744;SDS011;70143;52.396;16.950;2023-05-24T07:40:44;3.22;;;2.10;;
80744;SDS011;70143;52.396;16.950;2023-05-24T07:43:10;3.40;;;1.92;;
80744;SDS011;70143;52.396;16.950;2023-05-24T07:45:36;5.28;;;2.63;;
80744;SDS011;70143;52.396;16.950;2023-05-24T07:48:01;3.85;;;2.25;;
80744;SDS011;70143;52.396;16.950;2023-05-24T07:50:27;4.88;;;2.40;;
80744;SDS011;70143;52.396;16.950;2023-05-24T07:52:52;4.40;;;2.78;;
80744;SDS011;70143;52.396;16.950;2023-05-24T07:55:18;3.80;;;2.53;;
80744;SDS011;70143;52.396;16.950;2023-05-24T07:57:43;5.43;;;3.00;;
80744;SDS011;70143;52.396;16.950;2023-05-24T08:00:09;5.82;;;2.80;;
80744;SDS011;70143;52.396;16.950;2023-05-24T08:02:34;5.63;;;2.90;;
80744;SDS011;70143;52.396;16.950;2023-05-24T08:05:00;5.13;;;3.00;;
80744;SDS011;70143;52.396;16.950;2023-05-24T08:07:26;6.60;;;3.40;;
80744;SDS011;70143;52.396;16.950;2023-05-24T08:09:53;6.80;;;3.47;;
80744;SDS011;70143;52.396;16.950;2023-05-24T08:12:18;4.38;;;2.63;;
80744;SDS011;70143;52.396;16.950;2023-05-24T08:14:45;7.57;;;2.95;;
80744;SDS011;70143;52.396;16.950;2023-05-24T08:17:11;6.97;;;3.15;;
80744;SDS011;70143;52.396;16.950;2023-05-24T08:19:37;7.82;;;2.90;;
80744;SDS011;70143;52.396;16.950;2023-05-24T08:22:02;5.88;;;3.00;;
80744;SDS011;70143;52.396;16.950;2023-05-24T08:24:28;4.70;;;2.83;;
80744;SDS011;70143;52.396;16.950;2023-05-24T08:26:53;5.10;;;3.05;;
80744;SDS011;70143;52.396;16.950;2023-05-24T08:29:18;8.77;;;3.58;;
80744;SDS011;70143;52.396;16.950;2023-05-24T08:31:44;8.65;;;3.78;;
80744;SDS011;70143;52.396;16.950;2023-05-24T08:34:10;4.57;;;2.97;;
80744;SDS011;70143;52.396;16.950;2023-05-24T08:36:36;5.80;;;3.38;;
80744;SDS011;70143;52.396;16.950;2023-05-24T08:39:01;6.00;;;3.40;;
80744;SDS011;70143;52.396;16.950;2023-05-24T08:41:27;7.40;;;3.50;;
80744;SDS011;70143;52.396;16.950;2023-05-24T08:43:52;7.88;;;3.60;;
80744;SDS011;70143;52.396;16.950;2023-05-24T08:46:24;9.20;;;3.38;;
80744;SDS011;70143;52.396;16.950;2023-05-24T08:48:50;8.45;;;3.88;;
80744;SDS011;70143;52.396;16.950;2023-05-24T08:51:16;7.53;;;4.03;;
80744;SDS011;70143;52.396;16.950;2023-05-24T08:53:44;6.95;;;3.95;;
80744;SDS011;70143;52.396;16.950;2023-05-24T08:56:11;7.57;;;3.67;;
80744;SDS011;70143;52.396;16.950;2023-05-24T08:58:40;6.82;;;3.92;;
80744;SDS011;70143;52.396;16.950;2023-05-24T09:01:05;11.48;;;4.72;;
80744;SDS011;70143;52.396;16.950;2023-05-24T09:03:31;8.45;;;4.07;;
80744;SDS011;70143;52.396;16.950;2023-05-24T09:05:59;10.05;;;4.47;;
80744;SDS011;70143;52.396;16.950;2023-05-24T09:08:26;8.05;;;4.40;;
80744;SDS011;70143;52.396;16.950;2023-05-24T09:10:52;8.05;;;5.03;;
80744;SDS011;70143;52.396;16.950;2023-05-24T09:13:21;11.77;;;5.10;;
80744;SDS011;70143;52.396;16.950;2023-05-24T09:15:48;6.68;;;4.28;;
80744;SDS011;70143;52.396;16.950;2023-05-24T09:18:13;9.52;;;4.30;;
80744;SDS011;70143;52.396;16.950;2023-05-24T09:20:39;11.32;;;4.95;;
80744;SDS011;70143;52.396;16.950;2023-05-24T09:23:04;11.75;;;5.28;;
80744;SDS011;70143;52.396;16.950;2023-05-24T09:25:29;10.75;;;5.53;;
80744;SDS011;70143;52.396;16.950;2023-05-24T09:27:55;11.73;;;5.13;;
80744;SDS011;70143;52.396;16.950;2023-05-24T09:30:20;9.02;;;5.10;;
80744;SDS011;70143;52.396;16.950;2023-05-24T09:32:53;8.77;;;5.15;;
80744;SDS011;70143;52.396;16.950;2023-05-24T09:35:22;9.75;;;4.93;;
80744;SDS011;70143;52.396;16.950;2023-05-24T09:37:47;11.70;;;6.00;;
80744;SDS011;70143;52.396;16.950;2023-05-24T09:40:19;11.95;;;5.15;;
80744;SDS011;70143;52.396;16.950;2023-05-24T09:42:45;15.02;;;5.50;;
80744;SDS011;70143;52.396;16.950;2023-05-24T09:45:11;18.48;;;7.03;;
80744;SDS011;70143;52.396;16.950;2023-05-24T09:47:37;12.68;;;5.47;;
80744;SDS011;70143;52.396;16.950;2023-05-24T09:50:11;8.80;;;5.47;;
80744;SDS011;70143;52.396;16.950;2023-05-24T09:52:38;12.32;;;5.38;;
80744;SDS011;70143;52.396;16.950;2023-05-24T09:55:11;10.18;;;5.07;;
80744;SDS011;70143;52.396;16.950;2023-05-24T09:57:44;11.70;;;6.18;;
80744;SDS011;70143;52.396;16.950;2023-05-24T10:00:20;13.88;;;6.03;;
80744;SDS011;70143;52.396;16.950;2023-05-24T10:02:46;13.05;;;5.35;;
80744;SDS011;70143;52.396;16.950;2023-05-24T10:05:26;10.57;;;5.75;;
80744;SDS011;70143;52.396;16.950;2023-05-24T10:07:52;10.40;;;5.78;;
80744;SDS011;70143;52.396;16.950;2023-05-24T10:10:18;12.30;;;5.53;;
80744;SDS011;70143;52.396;16.950;2023-05-24T10:12:43;14.43;;;5.72;;
80744;SDS011;70143;52.396;16.950;2023-05-24T10:15:10;12.45;;;5.22;;
80744;SDS011;70143;52.396;16.950;2023-05-24T10:17:36;9.25;;;5.13;;
80744;SDS011;70143;52.396;16.950;2023-05-24T10:20:02;14.27;;;5.60;;
80744;SDS011;70143;52.396;16.950;2023-05-24T10:22:27;10.98;;;5.88;;
80744;SDS011;70143;52.396;16.950;2023-05-24T10:24:53;13.25;;;5.70;;
80744;SDS011;70143;52.396;16.950;2023-05-24T10:27:22;10.55;;;4.50;;
80744;SDS011;70143;52.396;16.950;2023-05-24T10:29:55;14.57;;;6.22;;
80744;SDS011;70143;52.396;16.950;2023-05-24T10:32:30;12.68;;;4.72;;
80744;SDS011;70143;52.396;16.950;2023-05-24T10:34:58;13.45;;;5.90;;
80744;SDS011;70143;52.396;16.950;2023-05-24T10:37:24;10.13;;;5.15;;
80744;SDS011;70143;52.396;16.950;2023-05-24T10:39:50;9.05;;;5.22;;
80744;SDS011;70143;52.396;16.950;2023-05-24T10:42:15;11.23;;;4.97;;
80744;SDS011;70143;52.396;16.950;2023-05-24T10:44:41;13.73;;;5.10;;
80744;SDS011;70143;52.396;16.950;2023-05-24T10:47:10;13.20;;;5.32;;
80744;SDS011;70143;52.396;16.950;2023-05-24T10:49:37;10.98;;;5.22;;
80744;SDS011;70143;52.396;16.950;2023-05-24T10:52:11;9.07;;;4.97;;
80744;SDS011;70143;52.396;16.950;2023-05-24T10:54:37;10.13;;;5.45;;
80744;SDS011;70143;52.396;16.950;2023-05-24T10:57:03;11.35;;;5.57;;
80744;SDS011;70143;52.396;16.950;2023-05-24T10:59:35;9.75;;;5.57;;
80744;SDS011;70143;52.396;16.950;2023-05-24T11:02:06;14.05;;;5.63;;
80744;SDS011;70143;52.396;16.950;2023-05-24T11:04:35;10.75;;;5.28;;
80744;SDS011;70143;52.396;16.950;2023-05-24T11:07:03;11.13;;;5.65;;
80744;SDS011;70143;52.396;16.950;2023-05-24T11:09:30;8.63;;;5.30;;
80744;SDS011;70143;52.396;16.950;2023-05-24T11:12:07;7.97;;;4.53;;
80744;SDS011;70143;52.396;16.950;2023-05-24T11:14:54;12.45;;;5.30;;
80744;SDS011;70143;52.396;16.950;2023-05-24T11:19:46;14.68;;;4.45;;
80744;SDS011;70143;52.396;16.950;2023-05-24T11:22:14;13.82;;;5.75;;
80744;SDS011;70143;52.396;16.950;2023-05-24T11:24:40;11.45;;;4.90;;
80744;SDS011;70143;52.396;16.950;2023-05-24T11:27:06;10.18;;;4.57;;
80744;SDS011;70143;52.396;16.950;2023-05-24T11:29:47;12.10;;;5.30;;
80744;SDS011;70143;52.396;16.950;2023-05-24T11:32:14;11.00;;;4.47;;
80744;SDS011;70143;52.396;16.950;2023-05-24T11:34:40;13.20;;;4.97;;
80744;SDS011;70143;52.396;16.950;2023-05-24T11:37:06;14.88;;;5.40;;
80744;SDS011;70143;52.396;16.950;2023-05-24T11:39:35;8.07;;;4.85;;
80744;SDS011;70143;52.396;16.950;2023-05-24T11:42:05;9.57;;;4.95;;
80744;SDS011;70143;52.396;16.950;2023-05-24T11:44:32;10.95;;;4.80;;
80744;SDS011;70143;52.396;16.950;2023-05-24T11:47:02;10.57;;;5.10;;
80744;SDS011;70143;52.396;16.950;2023-05-24T11:49:29;11.80;;;4.90;;
80744;SDS011;70143;52.396;16.950;2023-05-24T11:51:55;12.00;;;5.10;;
80744;SDS011;70143;52.396;16.950;2023-05-24T11:54:22;11.65;;;5.10;;
80744;SDS011;70143;52.396;16.950;2023-05-24T11:59:14;10.95;;;4.47;;
80744;SDS011;70143;52.396;16.950;2023-05-24T12:01:56;12.90;;;4.85;;
80744;SDS011;70143;52.396;16.950;2023-05-24T12:04:26;11.35;;;6.07;;
80744;SDS011;70143;52.396;16.950;2023-05-24T12:06:53;10.43;;;4.70;;
80744;SDS011;70143;52.396;16.950;2023-05-24T12:09:21;12.88;;;4.45;;
80744;SDS011;70143;52.396;16.950;2023-05-24T12:11:47;7.93;;;4.28;;
80744;SDS011;70143;52.396;16.950;2023-05-24T12:14:17;7.20;;;4.47;;
80744;SDS011;70143;52.396;16.950;2023-05-24T12:16:45;10.25;;;4.20;;
80744;SDS011;70143;52.396;16.950;2023-05-24T12:19:17;10.25;;;4.68;;
80744;SDS011;70143;52.396;16.950;2023-05-24T12:21:43;15.10;;;5.20;;
80744;SDS011;70143;52.396;16.950;2023-05-24T12:24:10;15.10;;;5.22;;
80744;SDS011;70143;52.396;16.950;2023-05-24T12:26:39;10.15;;;4.70;;
80744;SDS011;70143;52.396;16.950;2023-05-24T12:29:05;12.13;;;4.70;;
80744;SDS011;70143;52.396;16.950;2023-05-24T12:31:31;8.60;;;4.47;;
80744;SDS011;70143;52.396;16.950;2023-05-24T12:33:59;9.85;;;5.45;;
80744;SDS011;70143;52.396;16.950;2023-05-24T12:36:24;14.75;;;5.20;;
80744;SDS011;70143;52.396;16.950;2023-05-24T12:38:52;11.80;;;4.65;;
80744;SDS011;70143;52.396;16.950;2023-05-24T12:41:17;12.85;;;5.13;;
80744;SDS011;70143;52.396;16.950;2023-05-24T12:43:43;13.10;;;5.20;;
80744;SDS011;70143;52.396;16.950;2023-05-24T12:46:10;12.48;;;4.78;;
80744;SDS011;70143;52.396;16.950;2023-05-24T12:48:35;13.20;;;5.57;;
80744;SDS011;70143;52.396;16.950;2023-05-24T12:51:00;12.55;;;4.78;;
80744;SDS011;70143;52.396;16.950;2023-05-24T12:53:26;12.93;;;5.68;;
80744;SDS011;70143;52.396;16.950;2023-05-24T12:55:52;13.13;;;5.45;;
80744;SDS011;70143;52.396;16.950;2023-05-24T12:58:17;10.98;;;5.15;;
80744;SDS011;70143;52.396;16.950;2023-05-24T13:00:43;10.35;;;5.32;;
80744;SDS011;70143;52.396;16.950;2023-05-24T13:03:08;12.40;;;5.72;;
80744;SDS011;70143;52.396;16.950;2023-05-24T13:05:34;13.50;;;4.68;;
80744;SDS011;70143;52.396;16.950;2023-05-24T13:07:59;11.52;;;4.28;;
80744;SDS011;70143;52.396;16.950;2023-05-24T13:10:25;10.60;;;5.18;;
80744;SDS011;70143;52.396;16.950;2023-05-24T13:12:51;13.20;;;5.22;;
80744;SDS011;70143;52.396;16.950;2023-05-24T13:15:16;12.70;;;5.82;;
80744;SDS011;70143;52.396;16.950;2023-05-24T13:17:42;14.05;;;4.57;;
80744;SDS011;70143;52.396;16.950;2023-05-24T13:20:08;9.90;;;5.00;;
80744;SDS011;70143;52.396;16.950;2023-05-24T13:22:34;14.23;;;5.60;;
80744;SDS011;70143;52.396;16.950;2023-05-24T13:24:59;10.70;;;4.72;;
80744;SDS011;70143;52.396;16.950;2023-05-24T13:27:25;11.48;;;4.75;;
80744;SDS011;70143;52.396;16.950;2023-05-24T13:29:50;10.82;;;5.10;;
80744;SDS011;70143;52.396;16.950;2023-05-24T13:32:16;10.45;;;4.53;;
80744;SDS011;70143;52.396;16.950;2023-05-24T13:34:42;14.18;;;4.78;;
80744;SDS011;70143;52.396;16.950;2023-05-24T13:37:07;15.27;;;5.45;;
80744;SDS011;70143;52.396;16.950;2023-05-24T13:39:33;16.05;;;5.55;;
80744;SDS011;70143;52.396;16.950;2023-05-24T13:41:58;9.32;;;4.88;;
80744;SDS011;70143;52.396;16.950;2023-05-24T13:44:24;13.13;;;4.72;;
80744;SDS011;70143;52.396;16.950;2023-05-24T13:46:50;12.68;;;4.72;;
80744;SDS011;70143;52.396;16.950;2023-05-24T13:49:15;11.57;;;4.32;;
80744;SDS011;70143;52.396;16.950;2023-05-24T13:51:41;9.80;;;4.15;;
80744;SDS011;70143;52.396;16.950;2023-05-24T13:54:06;13.63;;;5.00;;
80744;SDS011;70143;52.396;16.950;2023-05-24T13:56:32;9.93;;;4.60;;
80744;SDS011;70143;52.396;16.950;2023-05-24T13:58:58;9.70;;;4.70;;
80744;SDS011;70143;52.396;16.950;2023-05-24T14:01:27;10.43;;;4.35;;
80744;SDS011;70143;52.396;16.950;2023-05-24T14:03:53;14.48;;;4.97;;
80744;SDS011;70143;52.396;16.950;2023-05-24T14:06:19;10.70;;;4.07;;
80744;SDS011;70143;52.396;16.950;2023-05-24T14:08:44;15.00;;;5.13;;
80744;SDS011;70143;52.396;16.950;2023-05-24T14:11:10;11.23;;;3.70;;
80744;SDS011;70143;52.396;16.950;2023-05-24T14:13:35;9.10;;;4.72;;
80744;SDS011;70143;52.396;16.950;2023-05-24T14:16:01;10.95;;;4.43;;
80744;SDS011;70143;52.396;16.950;2023-05-24T14:18:26;11.63;;;4.20;;
80744;SDS011;70143;52.396;16.950;2023-05-24T14:20:52;10.00;;;4.30;;
80744;SDS011;70143;52.396;16.950;2023-05-24T14:23:17;10.32;;;4.20;;
80744;SDS011;70143;52.396;16.950;2023-05-24T14:25:43;11.48;;;4.55;;
80744;SDS011;70143;52.396;16.950;2023-05-24T14:28:08;10.70;;;4.30;;
80744;SDS011;70143;52.396;16.950;2023-05-24T14:30:35;15.52;;;4.88;;
80744;SDS011;70143;52.396;16.950;2023-05-24T14:33:01;13.65;;;4.63;;
80744;SDS011;70143;52.396;16.950;2023-05-24T14:35:26;10.98;;;4.63;;
80744;SDS011;70143;52.396;16.950;2023-05-24T14:37:52;9.80;;;4.15;;
80744;SDS011;70143;52.396;16.950;2023-05-24T14:40:17;8.68;;;4.10;;
80744;SDS011;70143;52.396;16.950;2023-05-24T14:42:43;9.15;;;4.15;;
80744;SDS011;70143;52.396;16.950;2023-05-24T14:45:08;10.05;;;4.03;;
80744;SDS011;70143;52.396;16.950;2023-05-24T14:47:34;12.93;;;4.65;;
80744;SDS011;70143;52.396;16.950;2023-05-24T14:50:00;13.23;;;4.00;;